createdAt,value
2019-03-27T00:00:30.279Z,96219.00
2019-03-27T00:02:59.491Z,96214.92
2019-03-27T00:05:28.702Z,96214.78
2019-03-27T00:07:58.086Z,96214.28
2019-03-27T00:10:27.441Z,96218.70
2019-03-27T00:12:56.829Z,96214.34
2019-03-27T00:15:26.192Z,96220.28
2019-03-27T00:17:55.358Z,96222.59
2019-03-27T00:20:24.754Z,96226.86
2019-03-27T00:22:53.889Z,96216.66
2019-03-27T00:25:23.030Z,96220.97
2019-03-27T00:27:52.151Z,96223.92
2019-03-27T00:30:21.298Z,96218.05
2019-03-27T00:32:50.673Z,96221.59
2019-03-27T00:35:19.887Z,96221.84
2019-03-27T00:37:49.023Z,96214.44
2019-03-27T00:40:18.175Z,96217.19
2019-03-27T00:42:47.330Z,96218.28
2019-03-27T00:45:26.509Z,96215.34
2019-03-27T00:47:47.458Z,96213.02
2019-03-27T00:50:16.891Z,96222.14
2019-03-27T00:52:46.033Z,96222.45
2019-03-27T00:55:15.527Z,96225.93
2019-03-27T00:57:44.647Z,96222.59
2019-03-27T01:00:25.017Z,96221.61
2019-03-27T01:02:54.760Z,96214.22
2019-03-27T01:05:24.193Z,96216.01
2019-03-27T01:07:53.326Z,96216.70
2019-03-27T01:10:22.801Z,96217.14
2019-03-27T01:12:51.946Z,96222.58
2019-03-27T01:15:21.095Z,96218.45
2019-03-27T01:17:50.459Z,96218.45
2019-03-27T01:20:19.602Z,96219.67
2019-03-27T01:22:48.974Z,96217.75
2019-03-27T01:25:18.114Z,96213.14
2019-03-27T01:27:47.480Z,96216.48
2019-03-27T01:30:17.387Z,96219.03
2019-03-27T01:32:46.546Z,96220.84
2019-03-27T01:35:15.754Z,96220.84
2019-03-27T01:37:44.927Z,96220.16
2019-03-27T01:40:14.254Z,96219.76
2019-03-27T01:42:43.401Z,96217.95
2019-03-27T01:45:12.678Z,96213.75
2019-03-27T01:47:41.809Z,96214.33
2019-03-27T01:50:11.140Z,96214.56
2019-03-27T01:52:40.275Z,96211.86
2019-03-27T01:55:10.223Z,96207.16
2019-03-27T01:57:39.368Z,96207.95
2019-03-27T02:00:09.663Z,96202.66
2019-03-27T02:02:38.857Z,96204.70
2019-03-27T02:05:08.359Z,96196.88
2019-03-27T02:07:37.490Z,96190.28
2019-03-27T02:10:07.708Z,96196.56
2019-03-27T02:12:36.856Z,96196.24
2019-03-27T02:15:06.823Z,96202.11
2019-03-27T02:17:36.198Z,96200.45
2019-03-27T02:20:06.015Z,96203.88
2019-03-27T02:22:35.165Z,96205.89
2019-03-27T02:25:04.385Z,96198.60
2019-03-27T02:27:33.554Z,96199.18
2019-03-27T02:30:03.447Z,96205.75
2019-03-27T02:32:32.827Z,96202.05
2019-03-27T02:35:01.983Z,96205.67
2019-03-27T02:37:31.740Z,96202.25
2019-03-27T02:40:00.909Z,96209.13
2019-03-27T02:42:30.039Z,96206.52
2019-03-27T02:44:59.423Z,96202.80
2019-03-27T02:47:29.024Z,96202.78
2019-03-27T02:49:58.163Z,96208.44
2019-03-27T02:52:27.309Z,96204.32
2019-03-27T02:54:56.688Z,96209.93
2019-03-27T02:57:25.915Z,96200.32
2019-03-27T02:59:56.046Z,96200.98
2019-03-27T03:02:25.174Z,96203.06
2019-03-27T03:04:54.298Z,96205.87
2019-03-27T03:07:23.437Z,96207.00
2019-03-27T03:09:52.576Z,96214.22
2019-03-27T03:12:21.943Z,96215.92
2019-03-27T03:14:51.103Z,96214.59
2019-03-27T03:17:20.935Z,96221.46
2019-03-27T03:19:50.593Z,96217.50
2019-03-27T03:22:20.188Z,96212.53
2019-03-27T03:24:49.354Z,96211.59
2019-03-27T03:27:18.483Z,96211.83
2019-03-27T03:29:47.717Z,96212.03
2019-03-27T03:32:17.347Z,96209.95
2019-03-27T03:34:46.728Z,96208.95
2019-03-27T03:37:16.131Z,96213.28
2019-03-27T03:39:45.249Z,96205.61
2019-03-27T03:42:14.366Z,96207.16
2019-03-27T03:44:43.727Z,96209.31
2019-03-27T03:47:13.079Z,96212.40
2019-03-27T03:49:42.748Z,96212.75
2019-03-27T03:52:11.870Z,96221.16
2019-03-27T03:54:41.109Z,96217.30
2019-03-27T03:57:10.550Z,96224.33
2019-03-27T03:59:40.940Z,96224.22
2019-03-27T04:02:10.064Z,96223.19
2019-03-27T04:04:39.267Z,96221.59
2019-03-27T04:07:08.396Z,96225.77
2019-03-27T04:09:37.539Z,96230.63
2019-03-27T04:12:06.726Z,96228.47
2019-03-27T04:14:35.871Z,96228.16
2019-03-27T04:17:16.768Z,96235.39
2019-03-27T04:19:36.086Z,96235.23
2019-03-27T04:22:05.452Z,96243.55
2019-03-27T04:24:34.577Z,96243.34
2019-03-27T04:27:03.698Z,96229.73
2019-03-27T04:29:32.813Z,96232.25
2019-03-27T04:32:02.176Z,96221.46
2019-03-27T04:34:31.392Z,96223.11
2019-03-27T04:37:00.720Z,96228.91
2019-03-27T04:39:29.932Z,96228.43
2019-03-27T04:41:59.299Z,96226.00
2019-03-27T04:44:28.460Z,96225.14
2019-03-27T04:46:57.547Z,96220.37
2019-03-27T04:49:26.678Z,96223.55
2019-03-27T04:51:56.070Z,96234.48
2019-03-27T04:54:27.057Z,96236.66
2019-03-27T04:56:56.265Z,96235.92
2019-03-27T04:59:25.391Z,96240.34
2019-03-27T05:01:54.523Z,96235.92
2019-03-27T05:04:24.297Z,96241.25
2019-03-27T05:06:53.445Z,96245.77
2019-03-27T05:09:22.805Z,96247.11
2019-03-27T05:11:52.181Z,96241.22
2019-03-27T05:14:21.314Z,96245.70
2019-03-27T05:16:50.460Z,96254.80
2019-03-27T05:19:19.628Z,96266.70
2019-03-27T05:21:48.779Z,96264.52
2019-03-27T05:24:17.907Z,96268.48
2019-03-27T05:26:47.069Z,96265.94
2019-03-27T05:29:16.195Z,96269.61
2019-03-27T05:31:45.330Z,96272.71
2019-03-27T05:34:14.435Z,96263.05
2019-03-27T05:36:43.599Z,96255.23
2019-03-27T05:39:14.588Z,96256.77
2019-03-27T05:41:43.960Z,96256.10
2019-03-27T05:44:13.092Z,96252.27
2019-03-27T05:46:42.206Z,96256.99
2019-03-27T05:49:11.340Z,96254.95
2019-03-27T05:51:40.590Z,96251.45
2019-03-27T05:54:09.814Z,96258.51
2019-03-27T05:56:39.906Z,96263.50
2019-03-27T05:59:09.336Z,96265.75
2019-03-27T06:01:38.473Z,96268.55
2019-03-27T06:04:07.639Z,96273.11
2019-03-27T06:06:37.027Z,96281.66
2019-03-27T06:09:06.998Z,96284.62
2019-03-27T06:11:36.483Z,96280.61
2019-03-27T06:14:05.785Z,96282.23
2019-03-27T06:16:34.928Z,96288.45
2019-03-27T06:19:05.540Z,96301.11
2019-03-27T06:21:35.270Z,96300.64
2019-03-27T06:24:05.489Z,96305.28
2019-03-27T06:26:34.655Z,96301.70
2019-03-27T06:29:03.894Z,96306.13
2019-03-27T06:31:33.267Z,96309.67
2019-03-27T06:34:02.743Z,96306.50
2019-03-27T06:36:32.150Z,96305.50
2019-03-27T06:39:02.085Z,96312.58
2019-03-27T06:41:31.487Z,96311.69
2019-03-27T06:44:00.638Z,96305.26
2019-03-27T06:46:29.834Z,96300.14
2019-03-27T06:48:59.083Z,96305.01
2019-03-27T06:51:39.521Z,96304.00
2019-03-27T06:53:59.367Z,96302.23
2019-03-27T06:56:28.493Z,96302.45
2019-03-27T06:58:57.724Z,96305.67
2019-03-27T07:01:26.855Z,96309.41
2019-03-27T07:04:09.546Z,96307.20
2019-03-27T07:06:26.854Z,96311.41
2019-03-27T07:08:55.974Z,96309.18
2019-03-27T07:11:25.192Z,96314.77
2019-03-27T07:13:54.558Z,96326.40
2019-03-27T07:16:23.696Z,96329.52
2019-03-27T07:18:52.830Z,96327.47
2019-03-27T07:21:22.226Z,96334.25
2019-03-27T07:23:51.352Z,96336.02
2019-03-27T07:26:20.972Z,96334.50
2019-03-27T07:28:50.366Z,96341.28
2019-03-27T07:31:20.189Z,96338.89
2019-03-27T07:33:49.568Z,96329.09
2019-03-27T07:36:18.703Z,96330.84
2019-03-27T07:38:47.866Z,96337.22
2019-03-27T07:41:17.243Z,96339.02
2019-03-27T07:43:46.383Z,96347.52
2019-03-27T07:46:15.514Z,96343.36
2019-03-27T07:48:53.705Z,96344.66
2019-03-27T07:51:15.869Z,96344.89
2019-03-27T07:53:45.232Z,96347.36
2019-03-27T07:56:14.431Z,96352.08
2019-03-27T07:58:43.814Z,96358.57
2019-03-27T08:01:13.861Z,96358.57
2019-03-27T08:03:43.230Z,96365.81
2019-03-27T08:06:12.349Z,96357.42
2019-03-27T08:08:41.482Z,96360.23
2019-03-27T08:11:10.638Z,96360.23
2019-03-27T08:13:39.989Z,96363.18
2019-03-27T08:16:09.127Z,96362.54
2019-03-27T08:18:38.974Z,96368.59
2019-03-27T08:21:08.115Z,96368.59
2019-03-27T08:23:37.235Z,96364.44
2019-03-27T08:26:06.437Z,96376.16
2019-03-27T08:28:35.821Z,96372.45
2019-03-27T08:31:05.741Z,96372.45
2019-03-27T08:33:35.114Z,96373.30
2019-03-27T08:36:04.241Z,96370.34
2019-03-27T08:38:33.452Z,96376.21
2019-03-27T08:41:02.604Z,96379.23
2019-03-27T08:43:31.948Z,96384.09
2019-03-27T08:46:01.135Z,96373.06
2019-03-27T08:48:30.255Z,96376.48
2019-03-27T08:50:59.411Z,96397.48
2019-03-27T08:53:28.761Z,96397.48
2019-03-27T08:55:57.964Z,96387.69
2019-03-27T08:58:27.091Z,96387.69
2019-03-27T09:00:56.332Z,96394.05
2019-03-27T09:03:25.455Z,96390.44
2019-03-27T09:05:54.611Z,96391.00
2019-03-27T09:08:23.746Z,96397.31
2019-03-27T09:10:52.885Z,96385.55
2019-03-27T09:13:23.028Z,96384.06
2019-03-27T09:15:53.206Z,96381.32
2019-03-27T09:18:22.596Z,96387.53
2019-03-27T09:20:51.721Z,96388.81
2019-03-27T09:23:21.113Z,96395.66
2019-03-27T09:25:50.236Z,96396.28
2019-03-27T09:28:19.393Z,96391.53
2019-03-27T09:30:49.013Z,96393.32
2019-03-27T09:33:18.403Z,96403.89
2019-03-27T09:35:47.546Z,96407.58
2019-03-27T09:38:21.939Z,96401.86
2019-03-27T09:40:51.062Z,96407.72
2019-03-27T09:43:20.190Z,96407.86
2019-03-27T09:45:49.324Z,96408.98
2019-03-27T09:48:18.467Z,96412.61
2019-03-27T09:50:47.620Z,96411.55
2019-03-27T09:53:17.207Z,96414.57
2019-03-27T09:55:46.361Z,96411.47
2019-03-27T09:58:15.493Z,96409.92
2019-03-27T10:01:09.355Z,96413.75
2019-03-27T10:03:38.772Z,96423.03
2019-03-27T10:06:08.031Z,96425.38
2019-03-27T10:08:37.501Z,96428.58
2019-03-27T10:11:06.831Z,96420.84
2019-03-27T10:13:35.947Z,96430.08
2019-03-27T10:16:05.284Z,96428.30
2019-03-27T10:18:34.443Z,96428.18
2019-03-27T10:21:03.665Z,96425.04
2019-03-27T10:23:32.885Z,96413.58
2019-03-27T10:26:02.266Z,96420.45
2019-03-27T10:28:31.397Z,96422.16
2019-03-27T10:31:00.882Z,96414.17
2019-03-27T10:33:30.321Z,96415.67
2019-03-27T10:35:59.486Z,96416.51
2019-03-27T10:38:28.668Z,96411.94
2019-03-27T10:40:57.794Z,96415.98
2019-03-27T10:43:26.963Z,96416.26
2019-03-27T10:45:56.063Z,96418.05
2019-03-27T10:48:25.231Z,96419.44
2019-03-27T10:50:54.454Z,96417.56
2019-03-27T10:53:23.647Z,96421.33
2019-03-27T10:55:52.809Z,96418.75
2019-03-27T10:58:22.001Z,96423.59
2019-03-27T11:00:51.480Z,96427.37
2019-03-27T11:03:20.930Z,96425.20
2019-03-27T11:05:50.799Z,96422.41
2019-03-27T11:08:19.987Z,96432.70
2019-03-27T11:10:49.128Z,96424.11
2019-03-27T11:13:18.344Z,96424.91
2019-03-27T11:15:47.566Z,96424.61
2019-03-27T11:18:16.931Z,96430.34
2019-03-27T11:20:46.098Z,96424.59
2019-03-27T11:23:15.469Z,96422.69
2019-03-27T11:25:44.906Z,96431.39
2019-03-27T11:28:14.026Z,96428.20
2019-03-27T11:30:43.566Z,96421.98
2019-03-27T11:33:13.267Z,96423.55
2019-03-27T11:35:42.940Z,96426.13
2019-03-27T11:38:12.190Z,96435.98
2019-03-27T11:40:41.327Z,96427.48
2019-03-27T11:43:10.691Z,96425.27
2019-03-27T11:45:39.910Z,96421.71
2019-03-27T11:48:09.219Z,96421.45
2019-03-27T11:50:44.851Z,96409.05
2019-03-27T11:53:09.272Z,96405.08
2019-03-27T11:55:38.427Z,96413.05
2019-03-27T11:58:07.564Z,96404.98
2019-03-27T12:00:36.927Z,96404.29
2019-03-27T12:03:06.384Z,96398.31
2019-03-27T12:05:35.499Z,96396.23
2019-03-27T12:08:04.708Z,96395.37
2019-03-27T12:10:33.843Z,96398.41
2019-03-27T12:13:03.223Z,96403.94
2019-03-27T12:15:48.593Z,96403.39
2019-03-27T12:18:18.857Z,96405.47
2019-03-27T12:20:58.134Z,96399.12
2019-03-27T12:23:18.931Z,96398.33
2019-03-27T12:25:48.068Z,96401.76
2019-03-27T12:28:17.295Z,96403.91
2019-03-27T12:30:46.683Z,96404.09
2019-03-27T12:33:15.864Z,96403.33
2019-03-27T12:35:45.310Z,96404.35
2019-03-27T12:38:14.534Z,96402.30
2019-03-27T12:40:43.991Z,96407.73
2019-03-27T12:43:13.226Z,96407.52
2019-03-27T12:45:42.457Z,96401.53
2019-03-27T12:48:12.201Z,96405.94
2019-03-27T12:50:44.280Z,96405.81
2019-03-27T12:53:14.313Z,96404.59
2019-03-27T12:55:44.160Z,96399.88
2019-03-27T12:58:13.801Z,96395.50
2019-03-27T13:00:43.020Z,96396.10
2019-03-27T13:03:12.562Z,96399.44
2019-03-27T13:05:41.932Z,96403.30
2019-03-27T13:08:11.302Z,96403.03
2019-03-27T13:10:40.443Z,96402.52
2019-03-27T13:13:09.578Z,96400.26
2019-03-27T13:15:38.726Z,96393.47
2019-03-27T13:18:07.939Z,96392.08
2019-03-27T13:20:37.086Z,96388.31
2019-03-27T13:23:06.230Z,96395.95
2019-03-27T13:25:35.401Z,96393.39
2019-03-27T13:28:04.934Z,96394.91
2019-03-27T13:30:34.060Z,96394.59
2019-03-27T13:33:03.914Z,96400.72
2019-03-27T13:35:33.069Z,96409.16
2019-03-27T13:38:02.211Z,96407.58
2019-03-27T13:40:31.388Z,96403.83
2019-03-27T13:43:00.828Z,96412.25
2019-03-27T13:45:30.882Z,96409.41
2019-03-27T13:48:00.271Z,96405.88
2019-03-27T13:50:29.416Z,96404.44
2019-03-27T13:52:58.791Z,96401.59
2019-03-27T13:55:30.776Z,96397.83
2019-03-27T13:57:59.665Z,96400.62
2019-03-27T14:00:28.909Z,96400.69
2019-03-27T14:02:58.069Z,96405.00
2019-03-27T14:05:28.218Z,96401.16
2019-03-27T14:07:57.608Z,96397.02
2019-03-27T14:10:26.843Z,96393.01
2019-03-27T14:12:56.209Z,96393.37
2019-03-27T14:15:25.647Z,96391.52
2019-03-27T14:17:55.036Z,96396.21
2019-03-27T14:20:24.495Z,96391.44
2019-03-27T14:22:54.147Z,96390.23
2019-03-27T14:25:23.483Z,96390.23
2019-03-27T14:27:53.108Z,96392.61
2019-03-27T14:30:52.642Z,96392.02
2019-03-27T14:33:21.915Z,96397.08
2019-03-27T14:35:51.082Z,96395.22
2019-03-27T14:38:20.321Z,96401.50
2019-03-27T14:40:49.830Z,96392.18
2019-03-27T14:43:18.958Z,96387.35
2019-03-27T14:45:48.279Z,96392.85
2019-03-27T14:48:17.427Z,96391.30
2019-03-27T14:50:46.812Z,96393.55
2019-03-27T14:53:16.109Z,96386.55
2019-03-27T14:55:45.370Z,96380.52
2019-03-27T14:58:14.567Z,96378.41
2019-03-27T15:00:43.995Z,96389.91
2019-03-27T15:03:13.161Z,96388.61
2019-03-27T15:05:42.524Z,96389.80
2019-03-27T15:08:11.690Z,96391.55
2019-03-27T15:10:40.927Z,96391.51
2019-03-27T15:13:10.094Z,96389.67
2019-03-27T15:15:39.248Z,96383.97
2019-03-27T15:18:08.392Z,96381.75
2019-03-27T15:20:37.554Z,96376.38
2019-03-27T15:23:06.774Z,96381.84
2019-03-27T15:25:35.920Z,96382.38
2019-03-27T15:28:05.296Z,96381.22
2019-03-27T15:30:34.791Z,96374.18
2019-03-27T15:33:04.172Z,96369.73
2019-03-27T15:35:33.570Z,96364.63
2019-03-27T15:38:02.723Z,96368.20
2019-03-27T15:40:40.051Z,96364.33
2019-03-27T15:43:09.677Z,96366.57
2019-03-27T15:45:38.889Z,96374.34
2019-03-27T15:48:08.047Z,96376.65
2019-03-27T15:50:37.887Z,96375.30
2019-03-27T15:53:07.292Z,96373.52
2019-03-27T15:55:36.683Z,96375.70
2019-03-27T15:58:05.970Z,96370.65
2019-03-27T16:00:35.333Z,96382.83
2019-03-27T16:03:04.587Z,96382.78
2019-03-27T16:05:33.806Z,96380.02
2019-03-27T16:08:03.213Z,96375.60
2019-03-27T16:10:42.394Z,96383.79
2019-03-27T16:13:11.833Z,96381.41
2019-03-27T16:15:41.002Z,96385.92
2019-03-27T16:18:10.148Z,96383.73
2019-03-27T16:20:39.440Z,96384.06
2019-03-27T16:23:08.675Z,96391.35
2019-03-27T16:25:37.830Z,96399.34
2019-03-27T16:28:06.997Z,96399.77
2019-03-27T16:30:36.152Z,96404.66
2019-03-27T16:33:05.370Z,96398.63
2019-03-27T16:35:34.626Z,96395.87
2019-03-27T16:38:03.784Z,96404.77
2019-03-27T16:40:57.832Z,96407.88
2019-03-27T16:43:27.035Z,96398.43
2019-03-27T16:45:56.459Z,96407.41
2019-03-27T16:48:25.619Z,96407.06
2019-03-27T16:50:54.814Z,96411.13
2019-03-27T16:53:23.978Z,96411.20
2019-03-27T16:55:53.467Z,96411.91
2019-03-27T16:58:22.621Z,96413.67
2019-03-27T17:00:52.549Z,96415.48
2019-03-27T17:03:21.928Z,96415.48
2019-03-27T17:05:54.230Z,96415.99
2019-03-27T17:08:22.031Z,96423.19
2019-03-27T17:10:51.459Z,96414.94
2019-03-27T17:13:20.626Z,96422.23
2019-03-27T17:15:50.052Z,96424.41
2019-03-27T17:18:19.275Z,96414.44
2019-03-27T17:20:48.415Z,96420.97
2019-03-27T17:23:18.939Z,96418.94
2019-03-27T17:25:48.372Z,96433.09
2019-03-27T17:28:17.877Z,96432.70
2019-03-27T17:30:47.341Z,96439.69
2019-03-27T17:33:17.411Z,96426.09
2019-03-27T17:35:46.847Z,96434.43
2019-03-27T17:38:15.995Z,96434.91
2019-03-27T17:40:45.142Z,96432.16
2019-03-27T17:43:14.290Z,96432.16
2019-03-27T17:45:43.687Z,96439.45
2019-03-27T17:48:13.090Z,96440.10
2019-03-27T17:50:42.486Z,96440.10
2019-03-27T17:53:11.872Z,96436.25
2019-03-27T17:55:41.013Z,96448.73
2019-03-27T17:58:10.131Z,96448.73
2019-03-27T18:00:53.474Z,96455.73
2019-03-27T18:03:22.620Z,96453.44
2019-03-27T18:05:51.870Z,96452.39
2019-03-27T18:08:21.087Z,96448.73
2019-03-27T18:10:56.679Z,96446.08
2019-03-27T18:13:26.287Z,96448.66
2019-03-27T18:15:55.989Z,96446.85
2019-03-27T18:18:25.127Z,96445.79
2019-03-27T18:20:54.320Z,96451.39
2019-03-27T18:23:23.719Z,96449.47
2019-03-27T18:25:52.956Z,96447.80
2019-03-27T18:28:22.345Z,96454.53
2019-03-27T18:30:51.539Z,96456.98
2019-03-27T18:33:20.664Z,96454.84
2019-03-27T18:35:49.815Z,96454.07
2019-03-27T18:38:19.029Z,96456.55
2019-03-27T18:40:48.196Z,96457.89
2019-03-27T18:43:17.896Z,96463.74
2019-03-27T18:45:47.143Z,96467.52
2019-03-27T18:48:16.500Z,96469.27
2019-03-27T18:50:45.729Z,96473.03
2019-03-27T18:53:15.265Z,96481.50
2019-03-27T18:55:44.439Z,96484.92
2019-03-27T18:58:16.757Z,96488.28
2019-03-27T19:01:05.167Z,96488.56
2019-03-27T19:03:34.382Z,96495.64
2019-03-27T19:06:14.911Z,96495.80
2019-03-27T19:08:44.037Z,96488.67
2019-03-27T19:11:32.144Z,96488.55
2019-03-27T19:14:01.504Z,96488.72
2019-03-27T19:16:30.644Z,96497.08
2019-03-27T19:21:29.306Z,96497.51
2019-03-27T19:23:58.388Z,96503.73
2019-03-27T19:26:29.195Z,96495.39
2019-03-27T19:28:58.375Z,96499.41
2019-03-27T19:31:27.557Z,96502.91
2019-03-27T19:33:56.951Z,96498.26
2019-03-27T19:36:26.117Z,96503.68
2019-03-27T19:38:55.342Z,96511.34
2019-03-27T19:41:24.691Z,96505.90
2019-03-27T19:43:54.148Z,96506.42
2019-03-27T19:46:23.335Z,96511.30
2019-03-27T19:48:52.627Z,96512.87
2019-03-27T19:51:22.164Z,96511.88
2019-03-27T19:53:51.479Z,96514.59
2019-03-27T19:56:20.609Z,96513.63
2019-03-27T19:58:49.772Z,96511.96
2019-03-27T20:01:18.963Z,96515.38
2019-03-27T20:03:48.118Z,96514.12
2019-03-27T20:06:17.340Z,96515.45
2019-03-27T20:08:46.487Z,96519.34
2019-03-27T20:11:15.874Z,96512.95
2019-03-27T20:13:44.996Z,96511.48
2019-03-27T20:16:14.151Z,96508.27
2019-03-27T20:18:43.264Z,96506.02
2019-03-27T20:21:12.480Z,96513.58
2019-03-27T20:23:41.620Z,96518.14
2019-03-27T20:26:10.776Z,96515.31
2019-03-27T20:28:39.929Z,96522.72
2019-03-27T20:31:09.070Z,96520.96
2019-03-27T20:33:38.401Z,96517.63
2019-03-27T20:36:07.542Z,96513.94
2019-03-27T20:38:36.672Z,96514.76
2019-03-27T20:41:05.868Z,96515.00
2019-03-27T20:43:35.010Z,96522.12
2019-03-27T20:46:04.307Z,96517.72
2019-03-27T20:48:33.442Z,96512.60
2019-03-27T20:51:02.851Z,96515.63
2019-03-27T20:53:31.998Z,96514.80
2019-03-27T20:56:01.395Z,96515.52
2019-03-27T20:58:30.542Z,96521.66
2019-03-27T21:00:59.675Z,96521.89
2019-03-27T21:03:29.215Z,96519.30
2019-03-27T21:05:59.074Z,96522.72
2019-03-27T21:08:28.552Z,96516.72
2019-03-27T21:10:58.002Z,96513.45
2019-03-27T21:13:27.848Z,96513.77
2019-03-27T21:15:57.019Z,96514.92
2019-03-27T21:18:27.101Z,96516.42
2019-03-27T21:20:57.168Z,96516.81
2019-03-27T21:23:26.379Z,96511.02
2019-03-27T21:25:55.576Z,96515.55
2019-03-27T21:28:24.994Z,96516.53
2019-03-27T21:30:54.115Z,96517.33
2019-03-27T21:33:23.277Z,96515.41
2019-03-27T21:35:53.109Z,96519.25
2019-03-27T21:38:22.381Z,96523.06
2019-03-27T21:40:52.246Z,96517.72
2019-03-27T21:43:22.085Z,96518.86
2019-03-27T21:45:51.485Z,96516.14
2019-03-27T21:48:20.669Z,96519.63
2019-03-27T21:50:49.809Z,96520.41
2019-03-27T21:53:18.935Z,96521.12
2019-03-27T21:55:48.332Z,96520.34
2019-03-27T21:58:17.478Z,96523.78
2019-03-27T22:00:46.602Z,96523.78
2019-03-27T22:03:16.028Z,96529.56
2019-03-27T22:05:45.174Z,96530.70
2019-03-27T22:08:14.541Z,96528.73
2019-03-27T22:10:44.388Z,96533.55
2019-03-27T22:13:13.582Z,96536.42
2019-03-27T22:15:42.922Z,96532.31
2019-03-27T22:18:13.005Z,96542.63
2019-03-27T22:20:42.429Z,96538.58
2019-03-27T22:23:11.571Z,96543.09
2019-03-27T22:25:40.958Z,96549.77
2019-03-27T22:28:10.115Z,96550.70
2019-03-27T22:30:40.022Z,96547.45
2019-03-27T22:33:09.165Z,96543.34
2019-03-27T22:35:39.019Z,96552.42
2019-03-27T22:38:08.395Z,96548.40
2019-03-27T22:40:38.013Z,96551.70
2019-03-27T22:43:07.156Z,96538.63
2019-03-27T22:45:36.368Z,96540.45
2019-03-27T22:48:05.567Z,96536.86
2019-03-27T22:50:34.960Z,96538.45
2019-03-27T22:53:04.253Z,96540.16
2019-03-27T22:55:33.407Z,96548.56
2019-03-27T22:58:02.570Z,96545.28
2019-03-27T23:00:45.746Z,96542.89
2019-03-27T23:03:18.420Z,96537.35
2019-03-27T23:05:47.315Z,96543.92
2019-03-27T23:08:16.496Z,96545.88
2019-03-27T23:10:45.643Z,96549.33
2019-03-27T23:13:14.857Z,96547.31
2019-03-27T23:15:44.942Z,96554.33
2019-03-27T23:18:14.156Z,96561.62
2019-03-27T23:20:43.779Z,96559.59
2019-03-27T23:23:13.621Z,96559.98
2019-03-27T23:25:43.012Z,96556.23
2019-03-27T23:28:12.143Z,96560.30
2019-03-27T23:30:41.297Z,96566.23
2019-03-27T23:33:10.449Z,96564.73
2019-03-27T23:35:40.499Z,96563.24
2019-03-27T23:38:09.876Z,96567.03
2019-03-27T23:40:39.037Z,96571.84
2019-03-27T23:43:09.212Z,96568.73
2019-03-27T23:45:38.362Z,96567.69
2019-03-27T23:48:07.514Z,96567.20
2019-03-27T23:50:36.690Z,96558.38
2019-03-27T23:53:06.096Z,96560.88
2019-03-27T23:55:35.493Z,96559.33
2019-03-27T23:58:04.717Z,96556.41
